Accueil
METAR-TAF:

METAR-TAF

Aéroports :

Dehradun, Inde

latitude: 30-11-23N, longitude: 78-10-49E, altitude: 558 m

METAR: absent

Heure: 10:38 (05:08 UTC)

Prévision

Le bulletin a été fait il y a 6 heures et 8 minutes, à 23:00 UTC
Prévision valable du 08 à 00 UTC au 08 à 09 UTC
Vent 3 kt de ouest/nord-ouest
Visibilité: 1500 m
brume
Evoluant progressivement
du 08 à 02 UTC au 08 à 04 UTC
Visibilité: 5000 m
brume

TAF: VIDN 072300Z 0800/0809 29003KT 1500 BR NSC BECMG 0802/0804 5000 BR

Observations et prévisions météorologiques de plus de 4000 aéroports (messages METAR et TAF).

Les stations disponibles sont représentées par des disques jaunes et rouges sur la carte.

Passer la souris dessus pour voir le nom de la station.

Cliquer dessus pour voir les observations et prévisions météorologiques.

Pour changer de carte: cliquez sur les boutons verts avec une croix noire pour zoomer, sur le bouton vert avec un tiret pour effectuer un zoom arrière, ou sur les flèches vertes pour les cartes adjacentes.


METAR-TAF: